sensor_id;sensor_type;location;lat;lon;timestamp;P1;durP1;ratioP1;P2;durP2;ratioP2
4049;SDS011;2039;50.894;6.888;2023-07-22T00:02:18;75.23;;;15.43;;
4049;SDS011;2039;50.894;6.888;2023-07-22T00:04:45;74.77;;;12.93;;
4049;SDS011;2039;50.894;6.888;2023-07-22T00:07:11;72.87;;;14.20;;
4049;SDS011;2039;50.894;6.888;2023-07-22T00:09:37;74.17;;;13.70;;
4049;SDS011;2039;50.894;6.888;2023-07-22T00:12:04;71.63;;;14.07;;
4049;SDS011;2039;50.894;6.888;2023-07-22T00:14:29;72.67;;;13.73;;
4049;SDS011;2039;50.894;6.888;2023-07-22T00:16:55;71.87;;;12.93;;
4049;SDS011;2039;50.894;6.888;2023-07-22T00:19:21;73.17;;;13.53;;
4049;SDS011;2039;50.894;6.888;2023-07-22T00:21:46;73.20;;;12.93;;
4049;SDS011;2039;50.894;6.888;2023-07-22T00:24:12;75.20;;;13.30;;
4049;SDS011;2039;50.894;6.888;2023-07-22T00:26:38;71.50;;;12.70;;
4049;SDS011;2039;50.894;6.888;2023-07-22T00:29:03;72.30;;;12.87;;
4049;SDS011;2039;50.894;6.888;2023-07-22T00:31:29;71.77;;;11.10;;
4049;SDS011;2039;50.894;6.888;2023-07-22T00:33:55;73.23;;;12.20;;
4049;SDS011;2039;50.894;6.888;2023-07-22T00:36:21;72.60;;;11.30;;
4049;SDS011;2039;50.894;6.888;2023-07-22T00:38:46;73.50;;;12.20;;
4049;SDS011;2039;50.894;6.888;2023-07-22T00:41:12;77.77;;;12.47;;
4049;SDS011;2039;50.894;6.888;2023-07-22T00:43:38;73.93;;;13.03;;
4049;SDS011;2039;50.894;6.888;2023-07-22T00:46:04;73.77;;;12.53;;
4049;SDS011;2039;50.894;6.888;2023-07-22T00:48:30;72.13;;;12.50;;
4049;SDS011;2039;50.894;6.888;2023-07-22T00:50:56;72.07;;;12.47;;
4049;SDS011;2039;50.894;6.888;2023-07-22T00:53:22;73.67;;;11.90;;
4049;SDS011;2039;50.894;6.888;2023-07-22T00:55:48;73.30;;;12.50;;
4049;SDS011;2039;50.894;6.888;2023-07-22T00:58:14;74.30;;;11.30;;
4049;SDS011;2039;50.894;6.888;2023-07-22T01:00:40;75.17;;;11.87;;
4049;SDS011;2039;50.894;6.888;2023-07-22T01:03:06;72.87;;;12.70;;
4049;SDS011;2039;50.894;6.888;2023-07-22T01:05:33;71.93;;;11.90;;
4049;SDS011;2039;50.894;6.888;2023-07-22T01:08:01;73.07;;;12.63;;
4049;SDS011;2039;50.894;6.888;2023-07-22T01:10:27;73.67;;;12.70;;
4049;SDS011;2039;50.894;6.888;2023-07-22T01:12:53;73.60;;;12.80;;
4049;SDS011;2039;50.894;6.888;2023-07-22T01:15:20;75.80;;;13.53;;
4049;SDS011;2039;50.894;6.888;2023-07-22T01:17:46;74.43;;;14.27;;
4049;SDS011;2039;50.894;6.888;2023-07-22T01:20:12;74.37;;;13.07;;
4049;SDS011;2039;50.894;6.888;2023-07-22T01:22:38;73.50;;;15.10;;
4049;SDS011;2039;50.894;6.888;2023-07-22T01:25:05;74.37;;;13.83;;
4049;SDS011;2039;50.894;6.888;2023-07-22T01:27:32;73.77;;;13.17;;
4049;SDS011;2039;50.894;6.888;2023-07-22T01:29:57;73.37;;;12.97;;
4049;SDS011;2039;50.894;6.888;2023-07-22T01:32:23;72.93;;;14.30;;
4049;SDS011;2039;50.894;6.888;2023-07-22T01:34:49;74.60;;;15.77;;
4049;SDS011;2039;50.894;6.888;2023-07-22T01:37:15;76.20;;;15.07;;
4049;SDS011;2039;50.894;6.888;2023-07-22T01:39:41;76.43;;;16.57;;
4049;SDS011;2039;50.894;6.888;2023-07-22T01:42:06;74.83;;;16.50;;
4049;SDS011;2039;50.894;6.888;2023-07-22T01:44:32;74.30;;;16.90;;
4049;SDS011;2039;50.894;6.888;2023-07-22T01:47:01;76.83;;;18.30;;
4049;SDS011;2039;50.894;6.888;2023-07-22T01:49:27;77.73;;;18.90;;
4049;SDS011;2039;50.894;6.888;2023-07-22T01:51:53;81.97;;;20.23;;
4049;SDS011;2039;50.894;6.888;2023-07-22T01:54:19;75.83;;;19.80;;
4049;SDS011;2039;50.894;6.888;2023-07-22T01:56:45;77.60;;;20.37;;
4049;SDS011;2039;50.894;6.888;2023-07-22T01:59:11;81.07;;;21.10;;
4049;SDS011;2039;50.894;6.888;2023-07-22T02:01:36;79.03;;;21.30;;
4049;SDS011;2039;50.894;6.888;2023-07-22T02:04:02;77.97;;;23.90;;
4049;SDS011;2039;50.894;6.888;2023-07-22T02:06:28;80.17;;;27.47;;
4049;SDS011;2039;50.894;6.888;2023-07-22T02:08:54;79.23;;;25.97;;
4049;SDS011;2039;50.894;6.888;2023-07-22T02:11:19;83.57;;;30.10;;
4049;SDS011;2039;50.894;6.888;2023-07-22T02:13:45;82.63;;;26.20;;
4049;SDS011;2039;50.894;6.888;2023-07-22T02:16:11;79.50;;;26.97;;
4049;SDS011;2039;50.894;6.888;2023-07-22T02:18:36;77.57;;;24.67;;
4049;SDS011;2039;50.894;6.888;2023-07-22T02:21:02;82.20;;;27.50;;
4049;SDS011;2039;50.894;6.888;2023-07-22T02:23:31;79.17;;;27.10;;
4049;SDS011;2039;50.894;6.888;2023-07-22T02:25:57;78.77;;;25.07;;
4049;SDS011;2039;50.894;6.888;2023-07-22T02:28:22;78.50;;;26.03;;
4049;SDS011;2039;50.894;6.888;2023-07-22T02:30:49;79.20;;;24.90;;
4049;SDS011;2039;50.894;6.888;2023-07-22T02:33:17;78.17;;;24.60;;
4049;SDS011;2039;50.894;6.888;2023-07-22T02:35:43;80.10;;;25.20;;
4049;SDS011;2039;50.894;6.888;2023-07-22T02:38:08;78.43;;;24.40;;
4049;SDS011;2039;50.894;6.888;2023-07-22T02:40:35;78.17;;;22.90;;
4049;SDS011;2039;50.894;6.888;2023-07-22T02:43:01;77.73;;;24.83;;
4049;SDS011;2039;50.894;6.888;2023-07-22T02:45:28;78.67;;;25.00;;
4049;SDS011;2039;50.894;6.888;2023-07-22T02:47:54;79.87;;;25.93;;
4049;SDS011;2039;50.894;6.888;2023-07-22T02:50:19;78.27;;;23.70;;
4049;SDS011;2039;50.894;6.888;2023-07-22T02:52:45;80.50;;;27.60;;
4049;SDS011;2039;50.894;6.888;2023-07-22T02:55:12;78.70;;;26.77;;
4049;SDS011;2039;50.894;6.888;2023-07-22T02:57:43;80.77;;;26.33;;
4049;SDS011;2039;50.894;6.888;2023-07-22T03:00:13;80.10;;;28.33;;
4049;SDS011;2039;50.894;6.888;2023-07-22T03:02:50;79.67;;;29.73;;
4049;SDS011;2039;50.894;6.888;2023-07-22T03:05:17;81.67;;;26.43;;
4049;SDS011;2039;50.894;6.888;2023-07-22T03:07:43;79.70;;;26.53;;
4049;SDS011;2039;50.894;6.888;2023-07-22T03:10:08;82.17;;;30.47;;
4049;SDS011;2039;50.894;6.888;2023-07-22T03:12:35;79.87;;;27.03;;
4049;SDS011;2039;50.894;6.888;2023-07-22T03:15:01;81.60;;;30.93;;
4049;SDS011;2039;50.894;6.888;2023-07-22T03:17:28;80.67;;;30.87;;
4049;SDS011;2039;50.894;6.888;2023-07-22T03:19:54;82.77;;;32.53;;
4049;SDS011;2039;50.894;6.888;2023-07-22T03:22:20;79.20;;;29.17;;
4049;SDS011;2039;50.894;6.888;2023-07-22T03:24:46;83.17;;;33.47;;
4049;SDS011;2039;50.894;6.888;2023-07-22T03:27:12;84.20;;;31.10;;
4049;SDS011;2039;50.894;6.888;2023-07-22T03:29:40;81.20;;;32.80;;
4049;SDS011;2039;50.894;6.888;2023-07-22T03:32:06;81.50;;;32.13;;
4049;SDS011;2039;50.894;6.888;2023-07-22T03:34:32;82.40;;;31.87;;
4049;SDS011;2039;50.894;6.888;2023-07-22T03:36:58;79.80;;;25.00;;
4049;SDS011;2039;50.894;6.888;2023-07-22T03:39:24;79.67;;;28.23;;
4049;SDS011;2039;50.894;6.888;2023-07-22T03:41:50;79.77;;;29.03;;
4049;SDS011;2039;50.894;6.888;2023-07-22T03:44:15;84.03;;;30.77;;
4049;SDS011;2039;50.894;6.888;2023-07-22T03:46:41;83.23;;;30.90;;
4049;SDS011;2039;50.894;6.888;2023-07-22T03:49:07;79.10;;;27.50;;
4049;SDS011;2039;50.894;6.888;2023-07-22T03:51:33;79.10;;;28.43;;
4049;SDS011;2039;50.894;6.888;2023-07-22T03:53:59;82.00;;;30.70;;
4049;SDS011;2039;50.894;6.888;2023-07-22T03:56:28;79.70;;;28.60;;
4049;SDS011;2039;50.894;6.888;2023-07-22T03:58:53;79.43;;;29.67;;
4049;SDS011;2039;50.894;6.888;2023-07-22T04:01:19;81.87;;;27.43;;
4049;SDS011;2039;50.894;6.888;2023-07-22T04:03:44;79.07;;;30.33;;
4049;SDS011;2039;50.894;6.888;2023-07-22T04:06:10;79.70;;;28.97;;
4049;SDS011;2039;50.894;6.888;2023-07-22T04:08:36;76.97;;;28.43;;
4049;SDS011;2039;50.894;6.888;2023-07-22T04:11:02;78.47;;;23.90;;
4049;SDS011;2039;50.894;6.888;2023-07-22T04:13:28;78.97;;;26.90;;
4049;SDS011;2039;50.894;6.888;2023-07-22T04:18:21;79.77;;;26.60;;
4049;SDS011;2039;50.894;6.888;2023-07-22T04:20:47;79.57;;;31.23;;
4049;SDS011;2039;50.894;6.888;2023-07-22T04:23:13;81.93;;;28.60;;
4049;SDS011;2039;50.894;6.888;2023-07-22T04:25:42;80.57;;;28.60;;
4049;SDS011;2039;50.894;6.888;2023-07-22T04:28:09;81.00;;;29.63;;
4049;SDS011;2039;50.894;6.888;2023-07-22T04:30:35;79.50;;;29.17;;
4049;SDS011;2039;50.894;6.888;2023-07-22T04:33:01;78.87;;;30.73;;
4049;SDS011;2039;50.894;6.888;2023-07-22T04:35:30;80.97;;;29.87;;
4049;SDS011;2039;50.894;6.888;2023-07-22T04:38:00;81.77;;;37.60;;
4049;SDS011;2039;50.894;6.888;2023-07-22T04:40:32;77.90;;;26.50;;
4049;SDS011;2039;50.894;6.888;2023-07-22T04:42:58;82.60;;;31.33;;
4049;SDS011;2039;50.894;6.888;2023-07-22T04:45:23;79.70;;;30.00;;
4049;SDS011;2039;50.894;6.888;2023-07-22T04:47:49;80.30;;;31.80;;
4049;SDS011;2039;50.894;6.888;2023-07-22T04:50:16;83.43;;;27.67;;
4049;SDS011;2039;50.894;6.888;2023-07-22T04:52:46;79.87;;;30.23;;
4049;SDS011;2039;50.894;6.888;2023-07-22T04:55:15;80.20;;;30.80;;
4049;SDS011;2039;50.894;6.888;2023-07-22T04:57:41;79.47;;;30.80;;
4049;SDS011;2039;50.894;6.888;2023-07-22T05:00:10;81.77;;;30.03;;
4049;SDS011;2039;50.894;6.888;2023-07-22T05:02:39;78.97;;;24.07;;
4049;SDS011;2039;50.894;6.888;2023-07-22T05:05:05;78.03;;;26.33;;
4049;SDS011;2039;50.894;6.888;2023-07-22T05:07:30;81.07;;;25.97;;
4049;SDS011;2039;50.894;6.888;2023-07-22T05:09:56;76.60;;;24.03;;
4049;SDS011;2039;50.894;6.888;2023-07-22T05:12:22;78.70;;;24.60;;
4049;SDS011;2039;50.894;6.888;2023-07-22T05:14:48;76.73;;;23.30;;
4049;SDS011;2039;50.894;6.888;2023-07-22T05:17:14;80.00;;;27.80;;
4049;SDS011;2039;50.894;6.888;2023-07-22T05:19:40;76.60;;;22.07;;
4049;SDS011;2039;50.894;6.888;2023-07-22T05:22:06;82.50;;;28.53;;
4049;SDS011;2039;50.894;6.888;2023-07-22T05:24:32;78.93;;;22.10;;
4049;SDS011;2039;50.894;6.888;2023-07-22T05:26:58;78.20;;;24.50;;
4049;SDS011;2039;50.894;6.888;2023-07-22T05:29:23;76.83;;;24.17;;
4049;SDS011;2039;50.894;6.888;2023-07-22T05:31:49;76.70;;;21.50;;
4049;SDS011;2039;50.894;6.888;2023-07-22T05:34:15;76.57;;;24.00;;
4049;SDS011;2039;50.894;6.888;2023-07-22T05:36:40;79.70;;;22.67;;
4049;SDS011;2039;50.894;6.888;2023-07-22T05:39:06;76.57;;;21.40;;
4049;SDS011;2039;50.894;6.888;2023-07-22T05:41:32;75.87;;;20.57;;
4049;SDS011;2039;50.894;6.888;2023-07-22T05:43:58;77.90;;;19.73;;
4049;SDS011;2039;50.894;6.888;2023-07-22T05:46:24;75.83;;;20.83;;
4049;SDS011;2039;50.894;6.888;2023-07-22T05:48:50;76.10;;;20.07;;
4049;SDS011;2039;50.894;6.888;2023-07-22T05:51:15;78.40;;;22.57;;
4049;SDS011;2039;50.894;6.888;2023-07-22T05:53:42;76.20;;;19.23;;
4049;SDS011;2039;50.894;6.888;2023-07-22T05:56:07;75.83;;;19.03;;
4049;SDS011;2039;50.894;6.888;2023-07-22T05:58:34;76.63;;;18.93;;
4049;SDS011;2039;50.894;6.888;2023-07-22T06:00:59;78.90;;;20.43;;
4049;SDS011;2039;50.894;6.888;2023-07-22T06:03:25;79.07;;;21.40;;
4049;SDS011;2039;50.894;6.888;2023-07-22T06:05:51;81.30;;;21.93;;
4049;SDS011;2039;50.894;6.888;2023-07-22T06:08:16;79.60;;;21.23;;
4049;SDS011;2039;50.894;6.888;2023-07-22T06:10:42;76.60;;;21.20;;
4049;SDS011;2039;50.894;6.888;2023-07-22T06:13:08;77.50;;;19.20;;
4049;SDS011;2039;50.894;6.888;2023-07-22T06:15:34;79.33;;;17.80;;
4049;SDS011;2039;50.894;6.888;2023-07-22T06:18:00;76.10;;;15.70;;
4049;SDS011;2039;50.894;6.888;2023-07-22T06:20:29;76.10;;;18.23;;
4049;SDS011;2039;50.894;6.888;2023-07-22T06:22:56;78.73;;;17.47;;
4049;SDS011;2039;50.894;6.888;2023-07-22T06:25:28;75.07;;;16.87;;
4049;SDS011;2039;50.894;6.888;2023-07-22T06:31:13;77.27;;;17.30;;
4049;SDS011;2039;50.894;6.888;2023-07-22T06:33:38;77.73;;;17.10;;
4049;SDS011;2039;50.894;6.888;2023-07-22T06:36:04;74.73;;;15.40;;
4049;SDS011;2039;50.894;6.888;2023-07-22T06:38:30;75.90;;;13.57;;
4049;SDS011;2039;50.894;6.888;2023-07-22T06:40:55;76.37;;;10.60;;
4049;SDS011;2039;50.894;6.888;2023-07-22T06:43:22;78.63;;;11.30;;
4049;SDS011;2039;50.894;6.888;2023-07-22T06:45:48;79.87;;;11.90;;
4049;SDS011;2039;50.894;6.888;2023-07-22T06:48:13;79.83;;;14.30;;
4049;SDS011;2039;50.894;6.888;2023-07-22T06:50:39;77.20;;;10.60;;
4049;SDS011;2039;50.894;6.888;2023-07-22T06:53:06;78.90;;;11.80;;
4049;SDS011;2039;50.894;6.888;2023-07-22T06:55:34;75.17;;;10.17;;
4049;SDS011;2039;50.894;6.888;2023-07-22T06:58:00;81.70;;;11.53;;
4049;SDS011;2039;50.894;6.888;2023-07-22T07:00:26;75.47;;;9.03;;
4049;SDS011;2039;50.894;6.888;2023-07-22T07:02:54;73.60;;;8.70;;
4049;SDS011;2039;50.894;6.888;2023-07-22T07:05:20;77.17;;;9.30;;
4049;SDS011;2039;50.894;6.888;2023-07-22T07:07:49;76.07;;;9.33;;
4049;SDS011;2039;50.894;6.888;2023-07-22T07:10:14;73.90;;;8.10;;
4049;SDS011;2039;50.894;6.888;2023-07-22T07:12:40;75.50;;;9.20;;
4049;SDS011;2039;50.894;6.888;2023-07-22T07:15:06;75.80;;;9.63;;
4049;SDS011;2039;50.894;6.888;2023-07-22T07:17:35;77.93;;;9.37;;
4049;SDS011;2039;50.894;6.888;2023-07-22T07:20:01;74.70;;;8.90;;
4049;SDS011;2039;50.894;6.888;2023-07-22T07:22:27;72.40;;;8.10;;
4049;SDS011;2039;50.894;6.888;2023-07-22T07:24:53;76.50;;;8.00;;
4049;SDS011;2039;50.894;6.888;2023-07-22T07:27:18;76.10;;;9.50;;
4049;SDS011;2039;50.894;6.888;2023-07-22T07:29:44;74.70;;;9.30;;
4049;SDS011;2039;50.894;6.888;2023-07-22T07:32:09;73.37;;;9.03;;
4049;SDS011;2039;50.894;6.888;2023-07-22T07:34:38;77.07;;;9.47;;
4049;SDS011;2039;50.894;6.888;2023-07-22T07:37:04;74.67;;;9.20;;
4049;SDS011;2039;50.894;6.888;2023-07-22T07:39:30;74.07;;;8.43;;
4049;SDS011;2039;50.894;6.888;2023-07-22T07:41:56;72.87;;;8.67;;
4049;SDS011;2039;50.894;6.888;2023-07-22T07:44:24;73.77;;;8.47;;
4049;SDS011;2039;50.894;6.888;2023-07-22T07:46:49;75.50;;;7.27;;
4049;SDS011;2039;50.894;6.888;2023-07-22T07:49:15;76.20;;;9.40;;
4049;SDS011;2039;50.894;6.888;2023-07-22T07:51:40;74.77;;;8.37;;
4049;SDS011;2039;50.894;6.888;2023-07-22T07:54:07;79.10;;;8.83;;
4049;SDS011;2039;50.894;6.888;2023-07-22T07:56:33;73.70;;;8.00;;
4049;SDS011;2039;50.894;6.888;2023-07-22T07:58:59;74.80;;;8.30;;
4049;SDS011;2039;50.894;6.888;2023-07-22T08:01:24;80.13;;;8.77;;
4049;SDS011;2039;50.894;6.888;2023-07-22T08:03:50;80.70;;;9.33;;
4049;SDS011;2039;50.894;6.888;2023-07-22T08:06:16;84.07;;;11.02;;
4049;SDS011;2039;50.894;6.888;2023-07-22T08:08:44;73.50;;;8.60;;
4049;SDS011;2039;50.894;6.888;2023-07-22T08:11:25;75.10;;;8.60;;
4049;SDS011;2039;50.894;6.888;2023-07-22T08:13:50;74.50;;;8.43;;
4049;SDS011;2039;50.894;6.888;2023-07-22T08:16:17;73.10;;;7.90;;
4049;SDS011;2039;50.894;6.888;2023-07-22T08:18:43;72.70;;;7.60;;
4049;SDS011;2039;50.894;6.888;2023-07-22T08:21:08;75.77;;;7.60;;
4049;SDS011;2039;50.894;6.888;2023-07-22T08:23:35;72.70;;;7.63;;
4049;SDS011;2039;50.894;6.888;2023-07-22T08:26:02;75.07;;;7.83;;
4049;SDS011;2039;50.894;6.888;2023-07-22T08:28:30;72.17;;;7.10;;
4049;SDS011;2039;50.894;6.888;2023-07-22T08:30:56;73.97;;;7.53;;
4049;SDS011;2039;50.894;6.888;2023-07-22T08:33:24;73.37;;;6.93;;
4049;SDS011;2039;50.894;6.888;2023-07-22T08:35:56;69.60;;;6.30;;
4049;SDS011;2039;50.894;6.888;2023-07-22T08:38:21;70.73;;;5.80;;
4049;SDS011;2039;50.894;6.888;2023-07-22T08:40:50;72.47;;;6.80;;
4049;SDS011;2039;50.894;6.888;2023-07-22T08:43:17;70.40;;;6.37;;
4049;SDS011;2039;50.894;6.888;2023-07-22T08:45:45;71.37;;;6.30;;
4049;SDS011;2039;50.894;6.888;2023-07-22T08:48:12;69.63;;;5.63;;
4049;SDS011;2039;50.894;6.888;2023-07-22T08:53:16;69.80;;;5.90;;
4049;SDS011;2039;50.894;6.888;2023-07-22T08:55:46;70.07;;;6.10;;
4049;SDS011;2039;50.894;6.888;2023-07-22T08:58:15;69.60;;;5.87;;
4049;SDS011;2039;50.894;6.888;2023-07-22T09:00:41;70.70;;;5.70;;
4049;SDS011;2039;50.894;6.888;2023-07-22T09:03:08;69.67;;;5.50;;
4049;SDS011;2039;50.894;6.888;2023-07-22T09:05:35;70.33;;;5.83;;
4049;SDS011;2039;50.894;6.888;2023-07-22T09:08:02;69.17;;;5.03;;
4049;SDS011;2039;50.894;6.888;2023-07-22T09:10:28;75.00;;;5.20;;
4049;SDS011;2039;50.894;6.888;2023-07-22T09:12:55;70.47;;;4.97;;
4049;SDS011;2039;50.894;6.888;2023-07-22T09:15:21;69.37;;;5.37;;
4049;SDS011;2039;50.894;6.888;2023-07-22T09:17:48;69.57;;;5.33;;
4049;SDS011;2039;50.894;6.888;2023-07-22T09:20:15;69.70;;;5.60;;
4049;SDS011;2039;50.894;6.888;2023-07-22T09:22:44;69.27;;;5.10;;
4049;SDS011;2039;50.894;6.888;2023-07-22T09:25:24;74.33;;;6.67;;
4049;SDS011;2039;50.894;6.888;2023-07-22T09:27:51;71.00;;;5.90;;
4049;SDS011;2039;50.894;6.888;2023-07-22T09:30:25;70.20;;;5.10;;
4049;SDS011;2039;50.894;6.888;2023-07-22T09:32:55;71.40;;;5.77;;
4049;SDS011;2039;50.894;6.888;2023-07-22T09:35:22;68.40;;;4.80;;
4049;SDS011;2039;50.894;6.888;2023-07-22T09:37:50;69.47;;;5.10;;
4049;SDS011;2039;50.894;6.888;2023-07-22T09:40:19;69.97;;;5.60;;
4049;SDS011;2039;50.894;6.888;2023-07-22T09:42:46;70.10;;;5.60;;
4049;SDS011;2039;50.894;6.888;2023-07-22T09:45:17;72.27;;;5.60;;
4049;SDS011;2039;50.894;6.888;2023-07-22T09:47:44;68.47;;;4.90;;
4049;SDS011;2039;50.894;6.888;2023-07-22T09:50:18;70.23;;;5.10;;
4049;SDS011;2039;50.894;6.888;2023-07-22T09:52:50;69.07;;;5.07;;
4049;SDS011;2039;50.894;6.888;2023-07-22T09:55:19;68.43;;;4.93;;
4049;SDS011;2039;50.894;6.888;2023-07-22T09:57:56;71.67;;;5.33;;
4049;SDS011;2039;50.894;6.888;2023-07-22T10:00:29;69.27;;;4.60;;
4049;SDS011;2039;50.894;6.888;2023-07-22T10:02:59;68.33;;;4.33;;
4049;SDS011;2039;50.894;6.888;2023-07-22T10:05:26;69.60;;;4.90;;
4049;SDS011;2039;50.894;6.888;2023-07-22T10:07:57;69.10;;;5.00;;
4049;SDS011;2039;50.894;6.888;2023-07-22T10:10:25;69.70;;;4.63;;
4049;SDS011;2039;50.894;6.888;2023-07-22T10:12:53;70.07;;;5.07;;
4049;SDS011;2039;50.894;6.888;2023-07-22T10:15:21;71.70;;;4.93;;
4049;SDS011;2039;50.894;6.888;2023-07-22T10:17:49;70.00;;;5.07;;
4049;SDS011;2039;50.894;6.888;2023-07-22T10:20:15;68.87;;;5.33;;
4049;SDS011;2039;50.894;6.888;2023-07-22T10:22:45;70.13;;;5.00;;
4049;SDS011;2039;50.894;6.888;2023-07-22T10:25:12;70.17;;;5.10;;
4049;SDS011;2039;50.894;6.888;2023-07-22T10:27:42;69.10;;;4.93;;
4049;SDS011;2039;50.894;6.888;2023-07-22T10:30:09;70.00;;;5.40;;
4049;SDS011;2039;50.894;6.888;2023-07-22T10:32:39;68.03;;;4.73;;
4049;SDS011;2039;50.894;6.888;2023-07-22T10:35:10;69.10;;;5.23;;
4049;SDS011;2039;50.894;6.888;2023-07-22T10:37:38;69.27;;;5.20;;
4049;SDS011;2039;50.894;6.888;2023-07-22T10:40:26;71.30;;;5.07;;
4049;SDS011;2039;50.894;6.888;2023-07-22T10:43:38;68.60;;;4.40;;
4049;SDS011;2039;50.894;6.888;2023-07-22T10:45:43;69.00;;;5.17;;
4049;SDS011;2039;50.894;6.888;2023-07-22T10:48:22;68.30;;;4.67;;
4049;SDS011;2039;50.894;6.888;2023-07-22T10:50:52;69.90;;;5.77;;
4049;SDS011;2039;50.894;6.888;2023-07-22T11:04:05;68.37;;;4.50;;
4049;SDS011;2039;50.894;6.888;2023-07-22T11:06:32;69.77;;;5.00;;
4049;SDS011;2039;50.894;6.888;2023-07-22T11:08:58;71.70;;;5.17;;
4049;SDS011;2039;50.894;6.888;2023-07-22T11:14:13;70.37;;;4.93;;
4049;SDS011;2039;50.894;6.888;2023-07-22T11:16:41;69.60;;;6.07;;
4049;SDS011;2039;50.894;6.888;2023-07-22T11:19:08;69.27;;;5.23;;
4049;SDS011;2039;50.894;6.888;2023-07-22T11:21:33;68.93;;;4.93;;
4049;SDS011;2039;50.894;6.888;2023-07-22T11:23:59;70.70;;;5.00;;
4049;SDS011;2039;50.894;6.888;2023-07-22T11:26:24;69.77;;;5.30;;
4049;SDS011;2039;50.894;6.888;2023-07-22T11:28:50;69.33;;;5.47;;
4049;SDS011;2039;50.894;6.888;2023-07-22T11:31:18;69.60;;;6.00;;
4049;SDS011;2039;50.894;6.888;2023-07-22T11:33:43;68.87;;;5.43;;
4049;SDS011;2039;50.894;6.888;2023-07-22T11:36:11;69.87;;;6.20;;
4049;SDS011;2039;50.894;6.888;2023-07-22T11:38:38;70.00;;;5.73;;
4049;SDS011;2039;50.894;6.888;2023-07-22T11:41:04;69.60;;;6.50;;
4049;SDS011;2039;50.894;6.888;2023-07-22T11:43:30;68.97;;;5.37;;
4049;SDS011;2039;50.894;6.888;2023-07-22T11:45:56;69.60;;;6.00;;
4049;SDS011;2039;50.894;6.888;2023-07-22T11:48:22;69.77;;;5.80;;
4049;SDS011;2039;50.894;6.888;2023-07-22T11:50:48;70.40;;;5.10;;
4049;SDS011;2039;50.894;6.888;2023-07-22T11:53:13;68.80;;;4.63;;
4049;SDS011;2039;50.894;6.888;2023-07-22T11:55:40;71.27;;;5.80;;
4049;SDS011;2039;50.894;6.888;2023-07-22T11:58:06;69.00;;;4.57;;
4049;SDS011;2039;50.894;6.888;2023-07-22T12:00:33;68.30;;;4.80;;
4049;SDS011;2039;50.894;6.888;2023-07-22T12:03:05;70.10;;;4.27;;
4049;SDS011;2039;50.894;6.888;2023-07-22T12:05:35;69.47;;;4.43;;
4049;SDS011;2039;50.894;6.888;2023-07-22T12:08:03;68.70;;;3.80;;
4049;SDS011;2039;50.894;6.888;2023-07-22T12:10:29;70.07;;;4.07;;
4049;SDS011;2039;50.894;6.888;2023-07-22T12:12:54;68.93;;;3.73;;
4049;SDS011;2039;50.894;6.888;2023-07-22T12:15:25;68.57;;;3.03;;
4049;SDS011;2039;50.894;6.888;2023-07-22T12:17:52;68.67;;;3.40;;
4049;SDS011;2039;50.894;6.888;2023-07-22T12:20:26;68.67;;;3.77;;
4049;SDS011;2039;50.894;6.888;2023-07-22T12:22:53;75.43;;;3.60;;
4049;SDS011;2039;50.894;6.888;2023-07-22T12:25:19;70.57;;;3.60;;
4049;SDS011;2039;50.894;6.888;2023-07-22T12:27:45;69.60;;;3.07;;
4049;SDS011;2039;50.894;6.888;2023-07-22T12:30:10;69.07;;;3.20;;
4049;SDS011;2039;50.894;6.888;2023-07-22T12:32:37;70.50;;;4.20;;
4049;SDS011;2039;50.894;6.888;2023-07-22T12:35:03;68.37;;;2.90;;
4049;SDS011;2039;50.894;6.888;2023-07-22T12:37:29;68.30;;;3.17;;
4049;SDS011;2039;50.894;6.888;2023-07-22T12:39:58;68.07;;;3.23;;
4049;SDS011;2039;50.894;6.888;2023-07-22T12:42:24;68.27;;;3.27;;
4049;SDS011;2039;50.894;6.888;2023-07-22T12:44:49;68.27;;;3.10;;
4049;SDS011;2039;50.894;6.888;2023-07-22T12:47:16;68.17;;;2.73;;
4049;SDS011;2039;50.894;6.888;2023-07-22T12:49:41;68.80;;;3.70;;
4049;SDS011;2039;50.894;6.888;2023-07-22T12:52:07;69.83;;;3.37;;
4049;SDS011;2039;50.894;6.888;2023-07-22T12:54:36;68.60;;;2.90;;
4049;SDS011;2039;50.894;6.888;2023-07-22T12:57:02;68.23;;;3.00;;
4049;SDS011;2039;50.894;6.888;2023-07-22T12:59:28;71.20;;;3.83;;
4049;SDS011;2039;50.894;6.888;2023-07-22T13:01:53;68.80;;;3.40;;
4049;SDS011;2039;50.894;6.888;2023-07-22T13:04:19;68.30;;;2.80;;
4049;SDS011;2039;50.894;6.888;2023-07-22T13:06:45;69.43;;;2.97;;
4049;SDS011;2039;50.894;6.888;2023-07-22T13:09:11;69.10;;;3.23;;
4049;SDS011;2039;50.894;6.888;2023-07-22T13:11:36;69.10;;;3.20;;
4049;SDS011;2039;50.894;6.888;2023-07-22T13:14:02;68.30;;;2.97;;
4049;SDS011;2039;50.894;6.888;2023-07-22T13:16:28;69.27;;;3.50;;
4049;SDS011;2039;50.894;6.888;2023-07-22T13:18:54;69.23;;;3.37;;
4049;SDS011;2039;50.894;6.888;2023-07-22T13:21:20;68.37;;;3.30;;
4049;SDS011;2039;50.894;6.888;2023-07-22T13:23:45;70.40;;;3.40;;
4049;SDS011;2039;50.894;6.888;2023-07-22T13:26:11;69.50;;;3.50;;
4049;SDS011;2039;50.894;6.888;2023-07-22T13:28:43;68.17;;;3.10;;
4049;SDS011;2039;50.894;6.888;2023-07-22T13:31:11;68.93;;;3.30;;
4049;SDS011;2039;50.894;6.888;2023-07-22T13:33:37;69.40;;;3.20;;
4049;SDS011;2039;50.894;6.888;2023-07-22T13:36:02;69.40;;;3.10;;
4049;SDS011;2039;50.894;6.888;2023-07-22T13:38:28;68.27;;;3.10;;
4049;SDS011;2039;50.894;6.888;2023-07-22T13:40:54;68.67;;;3.70;;
4049;SDS011;2039;50.894;6.888;2023-07-22T13:43:25;69.07;;;3.73;;
4049;SDS011;2039;50.894;6.888;2023-07-22T13:45:54;70.47;;;4.10;;
4049;SDS011;2039;50.894;6.888;2023-07-22T13:48:19;69.60;;;3.83;;
4049;SDS011;2039;50.894;6.888;2023-07-22T13:50:45;68.70;;;3.53;;
4049;SDS011;2039;50.894;6.888;2023-07-22T13:53:11;69.07;;;4.10;;
4049;SDS011;2039;50.894;6.888;2023-07-22T13:55:36;68.70;;;3.30;;
4049;SDS011;2039;50.894;6.888;2023-07-22T13:58:02;68.83;;;4.20;;
4049;SDS011;2039;50.894;6.888;2023-07-22T14:00:28;82.47;;;4.70;;
4049;SDS011;2039;50.894;6.888;2023-07-22T14:02:53;68.57;;;3.80;;
4049;SDS011;2039;50.894;6.888;2023-07-22T14:05:19;71.87;;;4.10;;
4049;SDS011;2039;50.894;6.888;2023-07-22T14:07:45;69.00;;;3.40;;
4049;SDS011;2039;50.894;6.888;2023-07-22T14:10:11;69.40;;;4.20;;
4049;SDS011;2039;50.894;6.888;2023-07-22T14:12:36;68.67;;;3.60;;
4049;SDS011;2039;50.894;6.888;2023-07-22T14:15:08;69.20;;;3.80;;
4049;SDS011;2039;50.894;6.888;2023-07-22T14:17:35;69.03;;;4.07;;
4049;SDS011;2039;50.894;6.888;2023-07-22T14:20:03;70.63;;;4.13;;
4049;SDS011;2039;50.894;6.888;2023-07-22T14:22:30;69.80;;;4.10;;
4049;SDS011;2039;50.894;6.888;2023-07-22T14:24:58;70.27;;;4.57;;
4049;SDS011;2039;50.894;6.888;2023-07-22T14:27:24;69.87;;;4.77;;
4049;SDS011;2039;50.894;6.888;2023-07-22T14:29:49;69.10;;;4.13;;
4049;SDS011;2039;50.894;6.888;2023-07-22T14:32:15;69.60;;;3.80;;
4049;SDS011;2039;50.894;6.888;2023-07-22T14:34:41;69.97;;;3.87;;
4049;SDS011;2039;50.894;6.888;2023-07-22T14:37:07;68.90;;;3.60;;
4049;SDS011;2039;50.894;6.888;2023-07-22T14:39:33;68.93;;;4.30;;
4049;SDS011;2039;50.894;6.888;2023-07-22T14:41:58;71.83;;;4.50;;
4049;SDS011;2039;50.894;6.888;2023-07-22T14:44:24;69.60;;;3.87;;
4049;SDS011;2039;50.894;6.888;2023-07-22T14:46:50;71.20;;;3.90;;
4049;SDS011;2039;50.894;6.888;2023-07-22T14:49:15;69.13;;;4.17;;
4049;SDS011;2039;50.894;6.888;2023-07-22T14:51:41;69.37;;;4.30;;
4049;SDS011;2039;50.894;6.888;2023-07-22T14:54:06;69.43;;;4.03;;
4049;SDS011;2039;50.894;6.888;2023-07-22T14:56:33;69.60;;;3.80;;
4049;SDS011;2039;50.894;6.888;2023-07-22T14:58:59;75.47;;;4.00;;
4049;SDS011;2039;50.894;6.888;2023-07-22T15:01:25;69.30;;;4.13;;
4049;SDS011;2039;50.894;6.888;2023-07-22T15:03:56;69.20;;;3.90;;
4049;SDS011;2039;50.894;6.888;2023-07-22T15:06:23;69.03;;;3.70;;
4049;SDS011;2039;50.894;6.888;2023-07-22T15:11:25;69.27;;;3.97;;
4049;SDS011;2039;50.894;6.888;2023-07-22T15:13:54;69.00;;;3.70;;
4049;SDS011;2039;50.894;6.888;2023-07-22T15:16:30;71.57;;;4.33;;
4049;SDS011;2039;50.894;6.888;2023-07-22T15:19:01;70.73;;;3.80;;